Πλησιέστερες Αναφορές METAR

 

LGTS - Thessaloniki/Makedonia-Elev 7m
Απόσταση από σταθμό: Ν 13km
Ενημερώθηκε: 24/08/2019 23:20
Αίθριος
Αίθριος
 Ανεμοι από Α
Ανεμος: Α 9 km/h
Θερμοκρασία: 26°C
Σημείο Δρόσου: 15°C
Υγρασία: 51%
Βαρόμετρο: 1016 hPa
Περίληψη: Αίθριος
Ορατότητα: πάνω από 10 km
2019/08/24 20:20 LGTS 242020Z 10005KT CAVOK 26/15 Q1016 NOSIG
LGAV - Athens/Elef. Venizelos-Elev 94m
Απόσταση από σταθμό: ΝΝΑ 312km
Ενημερώθηκε: 24/08/2019 23:20
Αίθριος
Αίθριος
 Ανεμοι από Β
Ανεμος: Β 20 km/h
Θερμοκρασία: 29°C
Δείκτης Δυσφορίας: 29°C
Σημείο Δρόσου: 15°C
Υγρασία: 43%
Βαρόμετρο: 1014 hPa
Περίληψη: Αίθριος
Ορατότητα: πάνω από 10 km
2019/08/24 20:20 LGAV 242020Z 36011KT CAVOK 29/15 Q1014 NOSIG
 
LGAL - Alexandroupolis-Elev 3m
Απόσταση από σταθμό: Α 251km
Ενημερώθηκε: 24/08/2019 20:50
ΜΗ Ενημερωμένο METAR!
Αίθριος
Αίθριος
 Ανεμοι από ΑΒΑ
Ανεμος: ΑΒΑ 11 km/h
Θερμοκρασία: 31°C
Δείκτης Δυσφορίας: 31°C
Σημείο Δρόσου: 16°C
Υγρασία: 40%
Βαρόμετρο: 1016 hPa
Περίληψη: Αίθριος
Ορατότητα: πάνω από 10 km
2019/08/24 17:50 LGAL 241750Z 06006KT CAVOK 31/16 Q1016
LGKV - Kavala/Crysoupolis-Elev 5m
Απόσταση από σταθμό: ΑΒΑ 144km
Ενημερώθηκε: 24/08/2019 23:20
Αίθριος
Αίθριος
 Ανεμοι από ΑΒΑ
Ανεμος: ΑΒΑ 11 km/h
Θερμοκρασία: 27°C
Δείκτης Δυσφορίας: 28°C
Σημείο Δρόσου: 19°C
Υγρασία: 62%
Βαρόμετρο: 1016 hPa
Περίληψη: Αίθριος
Ορατότητα: πάνω από 10 km
2019/08/24 20:20 LGKV 242020Z 06006KT CAVOK 27/19 Q1016
 
LGSK - Skiathos Island-Elev 15m
Απόσταση από σταθμό: ΝΝΑ 168km
Ενημερώθηκε: 24/08/2019 21:20
ΜΗ Ενημερωμένο METAR!
Αίθριος
Αίθριος
 Ανεμοι από άπνοια
Ανεμος: άπνοια
Θερμοκρασία: 29°C
Δείκτης Δυσφορίας: 31°C
Σημείο Δρόσου: 21°C
Υγρασία: 62%
Βαρόμετρο: 1015 hPa
Περίληψη: Αίθριος
Ορατότητα: πάνω από 10 km
2019/08/24 18:20 LGSK 241820Z 00000KT CAVOK 29/21 Q1015
LGLM - Limnos Island-Elev 5m
Απόσταση από σταθμό: ΑΝΑ 210km
Ενημερώθηκε: 24/08/2019 22:50
Αίθριος
Αίθριος
 Ανεμοι από ΒΒΑ
Ανεμος: ΒΒΑ 17 km/h
Θερμοκρασία: 26°C
Σημείο Δρόσου: 17°C
Υγρασία: 58%
Βαρόμετρο: 1014 hPa
Περίληψη: Αίθριος
Ορατότητα: πάνω από 10 km
2019/08/24 19:50 LGLM 241950Z 02009KT CAVOK 26/17 Q1014
 
LGMT - Mitilini Island-Elev 17m
Απόσταση από σταθμό: ΑΝΑ 358km
Ενημερώθηκε: 24/08/2019 22:50
Αίθριος
Αίθριος
 Ανεμοι από ΔΒΔ
Ανεμος: ΔΒΔ 7 km/h
Θερμοκρασία: 28°C
Δείκτης Δυσφορίας: 29°C
Σημείο Δρόσου: 18°C
Υγρασία: 55%
Βαρόμετρο: 1012 hPa
Περίληψη: Αίθριος
Ορατότητα: πάνω από 10 km
2019/08/24 19:50 LGMT 241950Z 30004KT 250V350 CAVOK 28/18 Q1012
LGSY - Skiros Island-Elev 15m
Απόσταση από σταθμό: ΝΑ 227km
Ενημερώθηκε: 24/08/2019 23:20
Αίθριος
Αίθριος
 Ανεμοι από Β
Ανεμος: Β 28 km/h
Θερμοκρασία: 26°C
Σημείο Δρόσου: 21°C
Υγρασία: 74%
Βαρόμετρο: 1014 hPa
Περίληψη: Αίθριος
Ορατότητα: πάνω από 10 km
2019/08/24 20:20 LGSY 242020Z 01015KT CAVOK 26/21 Q1014
 
LGKZ - Kozani-Elev 628m
Απόσταση από σταθμό: ΔΝΔ 102km
Ενημερώθηκε: 24/08/2019 23:20

 Ανεμοι από μεταβλητός
Ανεμος: μεταβλητός 6 km/h
Θερμοκρασία: 20°C
Σημείο Δρόσου: 9°C
Υγρασία: 49%
Βαρόμετρο: 1021 hPa
2019/08/24 20:20 LGKZ 242020Z AUTO VRB03KT //// // ////// 20/09 Q1021 RE//
LGIO - Ioannina-Elev 476m
Απόσταση από σταθμό: ΔΝΔ 209km
Ενημερώθηκε: 24/08/2019 21:20
ΜΗ Ενημερωμένο METAR!
Διάσπαρτα Νέφη
Διάσπαρτα Νέφη
 Ανεμοι από ΑΒΑ
Ανεμος: ΑΒΑ 11 km/h
Θερμοκρασία: 29°C
Σημείο Δρόσου: 13°C
Υγρασία: 37%
Βαρόμετρο: 1017 hPa
Νέφωση: Διάσπαρτα Νέφη
Ορατότητα: 10 km
Λεπτομέρειες Νεφών: Διάσπαρτα Νέφη 1067 m
2019/08/24 18:20 LGIO 241820Z 07006KT 9999 FEW035 29/13 Q1017
 
LGZA - Zakinthos-Elev 3m
Απόσταση από σταθμό: ΝΝΔ 367km
Ενημερώθηκε: 24/08/2019 22:50
Αίθριος
Αίθριος
 Ανεμοι από ΒΒΔ
Ανεμος: ΒΒΔ 9 km/h
Θερμοκρασία: 30°C
Δείκτης Δυσφορίας: 32°C
Σημείο Δρόσου: 20°C
Υγρασία: 55%
Βαρόμετρο: 1013 hPa
Περίληψη: Αίθριος
Ορατότητα: πάνω από 10 km
2019/08/24 19:50 LGZA 241950Z 33005KT CAVOK 30/20 Q1013
LGKR - Corfu Island-Elev 2m
Απόσταση από σταθμό: ΔΝΔ 282km
Ενημερώθηκε: 24/08/2019 23:20
Διάσπαρτα Νέφη
Διάσπαρτα Νέφη
 Ανεμοι από άπνοια
Ανεμος: άπνοια
Θερμοκρασία: 28°C
Δείκτης Δυσφορίας: 28°C
Σημείο Δρόσου: 16°C
Υγρασία: 48%
Βαρόμετρο: 1013 hPa
Νέφωση: Διάσπαρτα Νέφη
Ορατότητα: 10 km
Λεπτομέρειες Νεφών: Διάσπαρτα Νέφη 1067 m
2019/08/24 20:20 LGKR 242020Z 00000KT 9999 FEW035 28/16 Q1013 NOSIG
 
LGSO - Syros Island-Elev 72m
Απόσταση από σταθμό: ΝΝΑ 397km
Ενημερώθηκε: 24/08/2019 23:20

 Ανεμοι από Β
Ανεμος: Β 22 km/h
Θερμοκρασία: 29°C
Δείκτης Δυσφορίας: 29°C
Σημείο Δρόσου: 16°C
Υγρασία: 45%
Βαρόμετρο: 1012 hPa
2019/08/24 20:20 LGSO 242020Z AUTO 35012KT //// // ////// 29/16 Q1012 RE//
LGMK - Mikonos Island-Elev 123m
Απόσταση από σταθμό: ΝΝΑ 412km
Ενημερώθηκε: 24/08/2019 23:20
Αίθριος
Αίθριος
 Ανεμοι από Β
Ανεμος: Β 26 km/h
Θερμοκρασία: 25°C
Σημείο Δρόσου: 17°C
Υγρασία: 61%
Βαρόμετρο: 1011 hPa
Περίληψη: Αίθριος
Ορατότητα: πάνω από 10 km
2019/08/24 20:20 LGMK 242020Z 36014KT CAVOK 25/17 Q1011
 
LGSR - Santorini Island-Elev 40m
Απόσταση από σταθμό: ΝΝΑ 520km
Ενημερώθηκε: 24/08/2019 23:20
Αίθριος
Αίθριος
 Ανεμοι από άπνοια
Ανεμος: άπνοια
Θερμοκρασία: 26°C
Σημείο Δρόσου: 18°C
Υγρασία: 61%
Βαρόμετρο: 1011 hPa
Περίληψη: Αίθριος
Ορατότητα: πάνω από 10 km
2019/08/24 20:20 LGSR 242020Z 00000KT CAVOK 26/18 Q1011
LGKL - Kalamata-Elev 8m
Απόσταση από σταθμό: Ν 405km
Ενημερώθηκε: 24/08/2019 23:20

 Ανεμοι από μεταβλητός
Ανεμος: μεταβλητός 2 km/h
Θερμοκρασία: 23°C
Σημείο Δρόσου: 18°C
Υγρασία: 74%
Βαρόμετρο: 1014 hPa
2019/08/24 20:20 LGKL 242020Z AUTO VRB01KT //// // ////// 23/18 Q1014 RE//
 
LGIR - Iraklion/Crete-Elev 5m
Απόσταση από σταθμό: ΝΝΑ 622km
Ενημερώθηκε: 24/08/2019 23:20
Διάσπαρτα Νέφη
Διάσπαρτα Νέφη
 Ανεμοι από ΝΝΑ
Ανεμος: ΝΝΑ 9 km/h
Θερμοκρασία: 25°C
Σημείο Δρόσου: 19°C
Υγρασία: 69%
Βαρόμετρο: 1012 hPa
Νέφωση: Διάσπαρτα Νέφη
Ορατότητα: 10 km
Λεπτομέρειες Νεφών: Διάσπαρτα Νέφη 762 m
2019/08/24 20:20 LGIR 242020Z 15005KT 9999 FEW025 25/19 Q1012 NOSIG
LGRP - Rhodes-Elev 5m
Απόσταση από σταθμό: ΝΑ 649km
Ενημερώθηκε: 24/08/2019 23:20
Αίθριος
Αίθριος
 Ανεμοι από ΔΝΔ
Ανεμος: ΔΝΔ 13 km/h
Θερμοκρασία: 27°C
Δείκτης Δυσφορίας: 31°C
Σημείο Δρόσου: 24°C
Υγρασία: 84%
Βαρόμετρο: 1009 hPa
Περίληψη: Αίθριος
Ορατότητα: πάνω από 10 km
2019/08/24 20:20 LGRP 242020Z 24007KT CAVOK 27/24 Q1009 NOSIG
 
LWOH - Ohrid/FYROM-Elev 761m
Απόσταση από σταθμό: ΔΒΔ 188km
Ενημερώθηκε: 24/08/2019 21:00
ΜΗ Ενημερωμένο METAR!
Μερικώς νεφελώδης
Μερικώς νεφελώδης
 Ανεμοι από ΒΔ
Ανεμος: ΒΔ 4 km/h
Θερμοκρασία: 22°C
Σημείο Δρόσου: 14°C
Υγρασία: 61%
Βαρόμετρο: 1020 hPa
Νέφωση: Μερικώς νεφελώδης
Ορατότητα: 10 km
Λεπτομέρειες Νεφών: Διάσπαρτα Νέφη 1219 m
Μερικώς νεφελώδης 2530 m
2019/08/24 18:00 LWOH 241800Z 31002KT 9999 FEW040TCU SCT083 22/14 Q1020
LBSF - Sofia/Bulgaria-Elev 595m
Απόσταση από σταθμό: Β 227km
Ενημερώθηκε: 24/08/2019 23:30
Αίθριος
Αίθριος
 Ανεμοι από ΑΝΑ
Ανεμος: ΑΝΑ 11 km/h
Θερμοκρασία: 23°C
Σημείο Δρόσου: 13°C
Υγρασία: 53%
Βαρόμετρο: 1021 hPa
Περίληψη: Αίθριος
Ορατότητα: πάνω από 10 km
2019/08/24 20:30 LBSF 242030Z 12006KT CAVOK 23/13 Q1021 NOSIG